sensor_id;sensor_type;location;lat;lon;timestamp;temperature;humidity
59128;DHT22;44912;52.754;5.994;2023-03-24T00:00:42;12.10;99.90
59128;DHT22;44912;52.754;5.994;2023-03-24T00:03:08;12.10;99.90
59128;DHT22;44912;52.754;5.994;2023-03-24T00:05:34;12.10;99.90
59128;DHT22;44912;52.754;5.994;2023-03-24T00:08:00;12.10;99.90
59128;DHT22;44912;52.754;5.994;2023-03-24T00:10:27;12.10;99.90
59128;DHT22;44912;52.754;5.994;2023-03-24T00:12:55;12.10;99.90
59128;DHT22;44912;52.754;5.994;2023-03-24T00:15:23;12.10;99.90
59128;DHT22;44912;52.754;5.994;2023-03-24T00:17:49;12.10;99.90
59128;DHT22;44912;52.754;5.994;2023-03-24T00:20:16;12.10;99.90
59128;DHT22;44912;52.754;5.994;2023-03-24T00:22:45;12.10;99.90
59128;DHT22;44912;52.754;5.994;2023-03-24T00:25:15;12.10;99.90
59128;DHT22;44912;52.754;5.994;2023-03-24T00:27:41;12.10;99.90
59128;DHT22;44912;52.754;5.994;2023-03-24T00:30:10;12.10;99.90
59128;DHT22;44912;52.754;5.994;2023-03-24T00:32:37;12.10;99.90
59128;DHT22;44912;52.754;5.994;2023-03-24T00:35:08;12.10;99.90
59128;DHT22;44912;52.754;5.994;2023-03-24T00:37:38;12.10;99.90
59128;DHT22;44912;52.754;5.994;2023-03-24T00:40:05;12.10;99.90
59128;DHT22;44912;52.754;5.994;2023-03-24T00:42:33;12.00;99.90
59128;DHT22;44912;52.754;5.994;2023-03-24T00:45:00;12.10;99.90
59128;DHT22;44912;52.754;5.994;2023-03-24T00:47:28;12.10;99.90
59128;DHT22;44912;52.754;5.994;2023-03-24T00:49:54;12.10;99.90
59128;DHT22;44912;52.754;5.994;2023-03-24T00:52:22;12.10;99.90
59128;DHT22;44912;52.754;5.994;2023-03-24T00:54:51;12.10;99.90
59128;DHT22;44912;52.754;5.994;2023-03-24T00:57:20;12.10;99.90
59128;DHT22;44912;52.754;5.994;2023-03-24T00:59:51;12.10;99.90
59128;DHT22;44912;52.754;5.994;2023-03-24T01:02:20;12.10;99.90
59128;DHT22;44912;52.754;5.994;2023-03-24T01:04:53;12.10;99.90
59128;DHT22;44912;52.754;5.994;2023-03-24T01:07:20;12.10;99.90
59128;DHT22;44912;52.754;5.994;2023-03-24T01:09:46;12.10;99.90
59128;DHT22;44912;52.754;5.994;2023-03-24T01:12:20;12.10;99.90
59128;DHT22;44912;52.754;5.994;2023-03-24T01:14:46;12.10;99.90
59128;DHT22;44912;52.754;5.994;2023-03-24T01:17:12;12.10;99.90
59128;DHT22;44912;52.754;5.994;2023-03-24T01:19:37;12.10;99.90
59128;DHT22;44912;52.754;5.994;2023-03-24T01:22:05;12.10;99.90
59128;DHT22;44912;52.754;5.994;2023-03-24T01:24:30;12.10;99.90
59128;DHT22;44912;52.754;5.994;2023-03-24T01:26:56;12.10;99.90
59128;DHT22;44912;52.754;5.994;2023-03-24T01:29:21;12.10;99.90
59128;DHT22;44912;52.754;5.994;2023-03-24T01:31:47;12.10;99.90
59128;DHT22;44912;52.754;5.994;2023-03-24T01:34:12;12.10;99.90
59128;DHT22;44912;52.754;5.994;2023-03-24T01:36:38;12.10;99.90
59128;DHT22;44912;52.754;5.994;2023-03-24T01:39:03;12.10;99.90
59128;DHT22;44912;52.754;5.994;2023-03-24T01:41:35;12.10;99.90
59128;DHT22;44912;52.754;5.994;2023-03-24T01:44:32;12.10;99.90
59128;DHT22;44912;52.754;5.994;2023-03-24T01:46:59;12.20;99.90
59128;DHT22;44912;52.754;5.994;2023-03-24T01:49:53;12.20;99.90
59128;DHT22;44912;52.754;5.994;2023-03-24T01:52:29;12.20;99.90
59128;DHT22;44912;52.754;5.994;2023-03-24T01:55:01;12.20;99.90
59128;DHT22;44912;52.754;5.994;2023-03-24T01:57:31;12.20;99.90
59128;DHT22;44912;52.754;5.994;2023-03-24T02:00:00;12.20;99.90
59128;DHT22;44912;52.754;5.994;2023-03-24T02:02:29;12.20;99.90
59128;DHT22;44912;52.754;5.994;2023-03-24T02:05:02;12.20;99.90
59128;DHT22;44912;52.754;5.994;2023-03-24T02:07:39;12.20;99.90
59128;DHT22;44912;52.754;5.994;2023-03-24T02:10:08;12.20;99.90
59128;DHT22;44912;52.754;5.994;2023-03-24T02:12:35;12.20;99.90
59128;DHT22;44912;52.754;5.994;2023-03-24T02:15:02;12.20;99.90
59128;DHT22;44912;52.754;5.994;2023-03-24T02:20:26;12.30;99.90
59128;DHT22;44912;52.754;5.994;2023-03-24T02:23:06;12.30;99.90
59128;DHT22;44912;52.754;5.994;2023-03-24T02:28:51;12.30;99.90
59128;DHT22;44912;52.754;5.994;2023-03-24T02:31:33;12.40;99.90
59128;DHT22;44912;52.754;5.994;2023-03-24T02:42:49;12.40;99.90
59128;DHT22;44912;52.754;5.994;2023-03-24T02:45:46;12.40;99.90
59128;DHT22;44912;52.754;5.994;2023-03-24T02:48:47;12.40;99.90
59128;DHT22;44912;52.754;5.994;2023-03-24T02:51:31;12.40;99.90
59128;DHT22;44912;52.754;5.994;2023-03-24T02:54:19;12.40;99.90
59128;DHT22;44912;52.754;5.994;2023-03-24T02:56:53;12.40;99.90
59128;DHT22;44912;52.754;5.994;2023-03-24T02:59:38;12.40;99.90
59128;DHT22;44912;52.754;5.994;2023-03-24T03:02:11;12.40;99.90
59128;DHT22;44912;52.754;5.994;2023-03-24T03:04:45;12.40;99.90
59128;DHT22;44912;52.754;5.994;2023-03-24T03:07:17;12.40;99.90
59128;DHT22;44912;52.754;5.994;2023-03-24T03:10:00;12.50;99.90
59128;DHT22;44912;52.754;5.994;2023-03-24T03:12:31;12.40;99.90
59128;DHT22;44912;52.754;5.994;2023-03-24T03:15:44;12.20;99.90
59128;DHT22;44912;52.754;5.994;2023-03-24T03:18:00;12.10;99.90
59128;DHT22;44912;52.754;5.994;2023-03-24T03:20:30;12.00;99.90
59128;DHT22;44912;52.754;5.994;2023-03-24T03:23:06;11.90;99.90
59128;DHT22;44912;52.754;5.994;2023-03-24T03:25:36;11.80;99.90
59128;DHT22;44912;52.754;5.994;2023-03-24T03:28:09;11.80;99.90
59128;DHT22;44912;52.754;5.994;2023-03-24T03:30:42;11.70;99.90
59128;DHT22;44912;52.754;5.994;2023-03-24T03:33:17;11.60;99.90
59128;DHT22;44912;52.754;5.994;2023-03-24T03:35:57;11.50;99.90
59128;DHT22;44912;52.754;5.994;2023-03-24T03:41:30;11.40;99.90
59128;DHT22;44912;52.754;5.994;2023-03-24T03:43:56;11.40;99.90
59128;DHT22;44912;52.754;5.994;2023-03-24T03:46:22;11.30;99.90
59128;DHT22;44912;52.754;5.994;2023-03-24T03:48:47;11.30;99.90
59128;DHT22;44912;52.754;5.994;2023-03-24T03:51:14;11.20;99.90
59128;DHT22;44912;52.754;5.994;2023-03-24T03:53:47;11.20;99.90
59128;DHT22;44912;52.754;5.994;2023-03-24T03:56:18;11.20;99.90
59128;DHT22;44912;52.754;5.994;2023-03-24T03:58:45;11.10;99.90
59128;DHT22;44912;52.754;5.994;2023-03-24T04:01:16;11.10;99.90
59128;DHT22;44912;52.754;5.994;2023-03-24T04:06:17;11.00;99.90
59128;DHT22;44912;52.754;5.994;2023-03-24T04:14:10;10.90;99.90
59128;DHT22;44912;52.754;5.994;2023-03-24T04:17:08;10.90;99.90
59128;DHT22;44912;52.754;5.994;2023-03-24T04:20:00;10.90;99.90
59128;DHT22;44912;52.754;5.994;2023-03-24T04:22:43;10.80;99.90
59128;DHT22;44912;52.754;5.994;2023-03-24T04:25:27;10.80;99.90
59128;DHT22;44912;52.754;5.994;2023-03-24T04:30:45;10.70;99.90
59128;DHT22;44912;52.754;5.994;2023-03-24T04:33:38;10.60;99.90
59128;DHT22;44912;52.754;5.994;2023-03-24T04:36:13;10.60;99.90
59128;DHT22;44912;52.754;5.994;2023-03-24T04:38:46;10.60;99.90
59128;DHT22;44912;52.754;5.994;2023-03-24T04:41:13;10.50;99.90
59128;DHT22;44912;52.754;5.994;2023-03-24T04:43:42;10.50;99.90
59128;DHT22;44912;52.754;5.994;2023-03-24T04:46:10;10.50;99.90
59128;DHT22;44912;52.754;5.994;2023-03-24T04:48:35;10.40;99.90
59128;DHT22;44912;52.754;5.994;2023-03-24T04:51:02;10.30;99.90
59128;DHT22;44912;52.754;5.994;2023-03-24T04:53:28;10.30;99.90
59128;DHT22;44912;52.754;5.994;2023-03-24T04:56:29;10.20;99.90
59128;DHT22;44912;52.754;5.994;2023-03-24T04:58:55;10.10;99.90
59128;DHT22;44912;52.754;5.994;2023-03-24T05:01:23;10.10;99.90
59128;DHT22;44912;52.754;5.994;2023-03-24T05:03:50;10.00;99.90
59128;DHT22;44912;52.754;5.994;2023-03-24T05:06:15;10.00;99.90
59128;DHT22;44912;52.754;5.994;2023-03-24T05:08:41;9.90;99.90
59128;DHT22;44912;52.754;5.994;2023-03-24T05:11:07;9.90;99.90
59128;DHT22;44912;52.754;5.994;2023-03-24T05:13:33;9.90;99.90
59128;DHT22;44912;52.754;5.994;2023-03-24T05:15:58;9.80;99.90
59128;DHT22;44912;52.754;5.994;2023-03-24T05:18:24;9.80;99.90
59128;DHT22;44912;52.754;5.994;2023-03-24T05:20:49;9.80;99.90
59128;DHT22;44912;52.754;5.994;2023-03-24T05:23:16;9.80;99.90
59128;DHT22;44912;52.754;5.994;2023-03-24T05:25:41;9.80;99.90
59128;DHT22;44912;52.754;5.994;2023-03-24T05:28:07;9.80;99.90
59128;DHT22;44912;52.754;5.994;2023-03-24T05:30:33;9.80;99.90
59128;DHT22;44912;52.754;5.994;2023-03-24T05:32:58;9.70;99.90
59128;DHT22;44912;52.754;5.994;2023-03-24T05:35:24;9.70;99.90
59128;DHT22;44912;52.754;5.994;2023-03-24T05:37:50;9.70;99.90
59128;DHT22;44912;52.754;5.994;2023-03-24T05:40:16;9.70;99.90
59128;DHT22;44912;52.754;5.994;2023-03-24T05:42:42;9.70;99.90
59128;DHT22;44912;52.754;5.994;2023-03-24T05:45:08;9.70;99.90
59128;DHT22;44912;52.754;5.994;2023-03-24T05:47:34;9.70;99.90
59128;DHT22;44912;52.754;5.994;2023-03-24T05:50:00;9.70;99.90
59128;DHT22;44912;52.754;5.994;2023-03-24T05:52:26;9.70;99.90
59128;DHT22;44912;52.754;5.994;2023-03-24T05:54:51;9.70;99.90
59128;DHT22;44912;52.754;5.994;2023-03-24T05:57:18;9.70;99.90
59128;DHT22;44912;52.754;5.994;2023-03-24T05:59:44;9.80;99.90
59128;DHT22;44912;52.754;5.994;2023-03-24T06:02:10;9.80;99.90
59128;DHT22;44912;52.754;5.994;2023-03-24T06:04:36;9.80;99.90
59128;DHT22;44912;52.754;5.994;2023-03-24T06:07:02;9.90;99.90
59128;DHT22;44912;52.754;5.994;2023-03-24T06:09:30;9.90;99.90
59128;DHT22;44912;52.754;5.994;2023-03-24T06:12:01;9.90;99.90
59128;DHT22;44912;52.754;5.994;2023-03-24T06:14:27;9.90;99.90
59128;DHT22;44912;52.754;5.994;2023-03-24T06:16:53;9.90;99.90
59128;DHT22;44912;52.754;5.994;2023-03-24T06:19:24;9.90;99.90
59128;DHT22;44912;52.754;5.994;2023-03-24T06:21:49;9.90;99.90
59128;DHT22;44912;52.754;5.994;2023-03-24T06:24:16;9.90;99.90
59128;DHT22;44912;52.754;5.994;2023-03-24T06:26:42;9.90;99.90
59128;DHT22;44912;52.754;5.994;2023-03-24T06:29:09;9.90;99.90
59128;DHT22;44912;52.754;5.994;2023-03-24T06:31:35;10.00;99.90
59128;DHT22;44912;52.754;5.994;2023-03-24T06:34:03;10.10;99.90
59128;DHT22;44912;52.754;5.994;2023-03-24T06:36:28;10.10;99.90
59128;DHT22;44912;52.754;5.994;2023-03-24T06:38:54;10.20;99.90
59128;DHT22;44912;52.754;5.994;2023-03-24T06:41:21;10.20;99.90
59128;DHT22;44912;52.754;5.994;2023-03-24T06:43:46;10.20;99.90
59128;DHT22;44912;52.754;5.994;2023-03-24T06:46:12;10.30;99.90
59128;DHT22;44912;52.754;5.994;2023-03-24T06:48:37;10.30;99.90
59128;DHT22;44912;52.754;5.994;2023-03-24T06:51:04;10.40;99.90
59128;DHT22;44912;52.754;5.994;2023-03-24T06:53:30;10.40;99.90
59128;DHT22;44912;52.754;5.994;2023-03-24T06:55:55;10.40;99.90
59128;DHT22;44912;52.754;5.994;2023-03-24T06:58:21;10.40;99.90
59128;DHT22;44912;52.754;5.994;2023-03-24T07:00:47;10.40;99.90
59128;DHT22;44912;52.754;5.994;2023-03-24T07:03:15;10.50;99.90
59128;DHT22;44912;52.754;5.994;2023-03-24T07:05:42;10.40;99.90
59128;DHT22;44912;52.754;5.994;2023-03-24T07:08:10;10.50;99.90
59128;DHT22;44912;52.754;5.994;2023-03-24T07:10:37;10.50;99.90
59128;DHT22;44912;52.754;5.994;2023-03-24T07:13:04;10.60;99.90
59128;DHT22;44912;52.754;5.994;2023-03-24T07:15:30;10.60;99.90
59128;DHT22;44912;52.754;5.994;2023-03-24T07:17:56;10.60;99.90
59128;DHT22;44912;52.754;5.994;2023-03-24T07:20:22;10.70;99.90
59128;DHT22;44912;52.754;5.994;2023-03-24T07:22:48;10.60;99.90
59128;DHT22;44912;52.754;5.994;2023-03-24T07:25:13;10.60;99.90
59128;DHT22;44912;52.754;5.994;2023-03-24T07:27:44;10.60;99.90
59128;DHT22;44912;52.754;5.994;2023-03-24T07:30:10;10.60;99.90
59128;DHT22;44912;52.754;5.994;2023-03-24T07:32:36;10.60;99.90
59128;DHT22;44912;52.754;5.994;2023-03-24T07:35:08;10.70;99.90
59128;DHT22;44912;52.754;5.994;2023-03-24T07:37:38;10.70;99.90
59128;DHT22;44912;52.754;5.994;2023-03-24T07:40:05;10.80;99.90
59128;DHT22;44912;52.754;5.994;2023-03-24T07:42:34;10.80;99.90
59128;DHT22;44912;52.754;5.994;2023-03-24T07:45:01;10.80;99.90
59128;DHT22;44912;52.754;5.994;2023-03-24T07:47:26;10.80;99.90
59128;DHT22;44912;52.754;5.994;2023-03-24T07:49:52;10.80;99.90
59128;DHT22;44912;52.754;5.994;2023-03-24T07:52:17;10.80;99.90
59128;DHT22;44912;52.754;5.994;2023-03-24T07:54:43;10.80;99.90
59128;DHT22;44912;52.754;5.994;2023-03-24T07:57:08;10.80;99.90
59128;DHT22;44912;52.754;5.994;2023-03-24T07:59:34;10.80;99.90
59128;DHT22;44912;52.754;5.994;2023-03-24T08:02:00;10.80;99.90
59128;DHT22;44912;52.754;5.994;2023-03-24T08:04:26;10.80;99.90
59128;DHT22;44912;52.754;5.994;2023-03-24T08:06:52;10.90;99.90
59128;DHT22;44912;52.754;5.994;2023-03-24T08:09:19;10.90;99.90
59128;DHT22;44912;52.754;5.994;2023-03-24T08:11:45;10.90;99.90
59128;DHT22;44912;52.754;5.994;2023-03-24T08:14:10;10.90;99.90
59128;DHT22;44912;52.754;5.994;2023-03-24T08:16:36;10.90;99.90
59128;DHT22;44912;52.754;5.994;2023-03-24T08:19:03;11.00;99.90
59128;DHT22;44912;52.754;5.994;2023-03-24T08:21:29;11.00;99.90
59128;DHT22;44912;52.754;5.994;2023-03-24T08:23:55;11.00;99.90
59128;DHT22;44912;52.754;5.994;2023-03-24T08:26:21;11.00;99.90
59128;DHT22;44912;52.754;5.994;2023-03-24T08:28:47;11.10;99.90
59128;DHT22;44912;52.754;5.994;2023-03-24T08:31:13;11.20;99.90
59128;DHT22;44912;52.754;5.994;2023-03-24T08:33:39;11.30;99.90
59128;DHT22;44912;52.754;5.994;2023-03-24T08:36:05;11.30;99.90
59128;DHT22;44912;52.754;5.994;2023-03-24T08:38:31;11.30;99.90
59128;DHT22;44912;52.754;5.994;2023-03-24T08:40:59;11.40;99.90
59128;DHT22;44912;52.754;5.994;2023-03-24T08:43:28;11.50;99.90
59128;DHT22;44912;52.754;5.994;2023-03-24T08:45:57;11.50;99.90
59128;DHT22;44912;52.754;5.994;2023-03-24T08:48:23;11.60;99.90
59128;DHT22;44912;52.754;5.994;2023-03-24T08:50:49;11.80;99.90
59128;DHT22;44912;52.754;5.994;2023-03-24T08:53:15;12.00;99.90
59128;DHT22;44912;52.754;5.994;2023-03-24T08:55:41;12.10;99.90
59128;DHT22;44912;52.754;5.994;2023-03-24T08:58:13;12.20;99.90
59128;DHT22;44912;52.754;5.994;2023-03-24T09:00:39;12.10;99.90
59128;DHT22;44912;52.754;5.994;2023-03-24T09:03:05;12.20;99.90
59128;DHT22;44912;52.754;5.994;2023-03-24T09:05:31;12.20;99.90
59128;DHT22;44912;52.754;5.994;2023-03-24T09:07:56;12.20;99.90
59128;DHT22;44912;52.754;5.994;2023-03-24T09:10:24;12.20;99.90
59128;DHT22;44912;52.754;5.994;2023-03-24T09:12:50;12.30;99.90
59128;DHT22;44912;52.754;5.994;2023-03-24T09:15:16;12.20;99.90
59128;DHT22;44912;52.754;5.994;2023-03-24T09:17:42;12.20;99.90
59128;DHT22;44912;52.754;5.994;2023-03-24T09:20:11;12.30;99.90
59128;DHT22;44912;52.754;5.994;2023-03-24T09:22:41;12.30;99.90
59128;DHT22;44912;52.754;5.994;2023-03-24T09:25:08;12.20;99.90
59128;DHT22;44912;52.754;5.994;2023-03-24T09:27:35;12.10;99.90
59128;DHT22;44912;52.754;5.994;2023-03-24T09:30:00;12.00;99.90
59128;DHT22;44912;52.754;5.994;2023-03-24T09:32:26;12.20;99.90
59128;DHT22;44912;52.754;5.994;2023-03-24T09:34:52;12.20;99.90
59128;DHT22;44912;52.754;5.994;2023-03-24T09:37:17;12.20;99.90
59128;DHT22;44912;52.754;5.994;2023-03-24T09:39:43;12.20;99.90
59128;DHT22;44912;52.754;5.994;2023-03-24T09:42:18;12.10;99.90
59128;DHT22;44912;52.754;5.994;2023-03-24T09:44:45;12.10;99.90
59128;DHT22;44912;52.754;5.994;2023-03-24T09:49:47;12.40;99.90
59128;DHT22;44912;52.754;5.994;2023-03-24T09:52:15;12.40;99.90
59128;DHT22;44912;52.754;5.994;2023-03-24T09:54:54;12.40;99.90
59128;DHT22;44912;52.754;5.994;2023-03-24T09:57:38;12.50;99.90
59128;DHT22;44912;52.754;5.994;2023-03-24T10:00:21;12.50;99.90
59128;DHT22;44912;52.754;5.994;2023-03-24T10:02:49;12.60;99.90
59128;DHT22;44912;52.754;5.994;2023-03-24T10:05:19;12.60;99.90
59128;DHT22;44912;52.754;5.994;2023-03-24T10:07:59;12.70;99.90
59128;DHT22;44912;52.754;5.994;2023-03-24T10:10:54;12.80;99.90
59128;DHT22;44912;52.754;5.994;2023-03-24T10:13:38;12.70;99.90
59128;DHT22;44912;52.754;5.994;2023-03-24T10:16:29;12.70;99.90
59128;DHT22;44912;52.754;5.994;2023-03-24T10:22:18;13.00;99.90
59128;DHT22;44912;52.754;5.994;2023-03-24T10:24:56;12.90;99.90
59128;DHT22;44912;52.754;5.994;2023-03-24T10:27:55;12.90;99.90
59128;DHT22;44912;52.754;5.994;2023-03-24T10:30:24;12.90;99.90
59128;DHT22;44912;52.754;5.994;2023-03-24T10:32:51;13.00;99.90
59128;DHT22;44912;52.754;5.994;2023-03-24T10:35:33;13.20;99.90
59128;DHT22;44912;52.754;5.994;2023-03-24T10:38:03;13.20;99.90
59128;DHT22;44912;52.754;5.994;2023-03-24T10:40:32;13.10;99.90
59128;DHT22;44912;52.754;5.994;2023-03-24T10:42:59;13.30;99.90
59128;DHT22;44912;52.754;5.994;2023-03-24T10:45:28;13.20;99.90
59128;DHT22;44912;52.754;5.994;2023-03-24T10:47:58;13.30;99.90
59128;DHT22;44912;52.754;5.994;2023-03-24T10:50:27;13.40;99.90
59128;DHT22;44912;52.754;5.994;2023-03-24T10:52:53;13.40;99.90
59128;DHT22;44912;52.754;5.994;2023-03-24T10:55:22;13.50;99.90
59128;DHT22;44912;52.754;5.994;2023-03-24T10:57:51;13.50;99.90
59128;DHT22;44912;52.754;5.994;2023-03-24T11:00:19;13.50;99.90
59128;DHT22;44912;52.754;5.994;2023-03-24T11:03:04;13.40;99.90
59128;DHT22;44912;52.754;5.994;2023-03-24T11:05:36;13.40;99.90
59128;DHT22;44912;52.754;5.994;2023-03-24T11:08:22;13.40;99.90
59128;DHT22;44912;52.754;5.994;2023-03-24T11:10:50;13.50;99.90
59128;DHT22;44912;52.754;5.994;2023-03-24T11:13:18;13.60;99.90
59128;DHT22;44912;52.754;5.994;2023-03-24T11:18:27;13.80;99.90
59128;DHT22;44912;52.754;5.994;2023-03-24T11:20:59;13.90;99.90
59128;DHT22;44912;52.754;5.994;2023-03-24T11:23:39;13.80;99.90
59128;DHT22;44912;52.754;5.994;2023-03-24T11:28:51;13.90;99.90
59128;DHT22;44912;52.754;5.994;2023-03-24T11:31:26;13.70;99.90
59128;DHT22;44912;52.754;5.994;2023-03-24T11:36:45;13.70;99.90
59128;DHT22;44912;52.754;5.994;2023-03-24T11:39:16;13.70;99.90
59128;DHT22;44912;52.754;5.994;2023-03-24T11:41:50;13.80;99.90
59128;DHT22;44912;52.754;5.994;2023-03-24T11:44:23;13.60;99.90
59128;DHT22;44912;52.754;5.994;2023-03-24T11:46:54;13.60;99.90
59128;DHT22;44912;52.754;5.994;2023-03-24T11:49:23;13.60;99.90
59128;DHT22;44912;52.754;5.994;2023-03-24T11:51:53;13.60;99.90
59128;DHT22;44912;52.754;5.994;2023-03-24T11:54:26;13.70;99.90
59128;DHT22;44912;52.754;5.994;2023-03-24T11:56:55;13.70;99.90
59128;DHT22;44912;52.754;5.994;2023-03-24T12:05:30;13.60;99.90
59128;DHT22;44912;52.754;5.994;2023-03-24T12:10:59;13.60;99.90
59128;DHT22;44912;52.754;5.994;2023-03-24T12:13:34;13.70;99.90
59128;DHT22;44912;52.754;5.994;2023-03-24T12:16:20;13.60;99.90
59128;DHT22;44912;52.754;5.994;2023-03-24T12:22:02;13.70;99.90
59128;DHT22;44912;52.754;5.994;2023-03-24T12:26:59;13.90;99.90
59128;DHT22;44912;52.754;5.994;2023-03-24T12:29:43;13.80;99.90
59128;DHT22;44912;52.754;5.994;2023-03-24T12:37:57;13.80;99.90
59128;DHT22;44912;52.754;5.994;2023-03-24T12:40:50;13.90;99.90
59128;DHT22;44912;52.754;5.994;2023-03-24T12:43:31;13.70;99.90
59128;DHT22;44912;52.754;5.994;2023-03-24T12:46:14;13.70;99.90
59128;DHT22;44912;52.754;5.994;2023-03-24T12:49:04;13.70;99.90
59128;DHT22;44912;52.754;5.994;2023-03-24T12:52:27;13.70;99.90
59128;DHT22;44912;52.754;5.994;2023-03-24T12:55:00;13.70;99.90
59128;DHT22;44912;52.754;5.994;2023-03-24T12:57:32;13.60;99.90
59128;DHT22;44912;52.754;5.994;2023-03-24T13:00:02;13.70;99.90
59128;DHT22;44912;52.754;5.994;2023-03-24T13:03:00;13.80;99.90
59128;DHT22;44912;52.754;5.994;2023-03-24T13:05:31;13.90;99.90
59128;DHT22;44912;52.754;5.994;2023-03-24T13:08:01;14.00;99.90
59128;DHT22;44912;52.754;5.994;2023-03-24T13:10:29;14.00;99.90
59128;DHT22;44912;52.754;5.994;2023-03-24T13:13:22;14.10;99.90
59128;DHT22;44912;52.754;5.994;2023-03-24T13:15:53;13.90;99.90
59128;DHT22;44912;52.754;5.994;2023-03-24T13:21:03;14.00;99.90
59128;DHT22;44912;52.754;5.994;2023-03-24T13:23:54;14.10;99.90
59128;DHT22;44912;52.754;5.994;2023-03-24T13:31:26;14.20;99.90
59128;DHT22;44912;52.754;5.994;2023-03-24T13:33:54;14.20;99.90
59128;DHT22;44912;52.754;5.994;2023-03-24T13:36:47;14.10;99.90
59128;DHT22;44912;52.754;5.994;2023-03-24T13:39:17;14.10;99.90
59128;DHT22;44912;52.754;5.994;2023-03-24T13:41:51;14.20;99.90
59128;DHT22;44912;52.754;5.994;2023-03-24T13:44:23;14.20;99.90
59128;DHT22;44912;52.754;5.994;2023-03-24T13:47:02;14.20;99.90
59128;DHT22;44912;52.754;5.994;2023-03-24T13:49:30;14.20;99.90
59128;DHT22;44912;52.754;5.994;2023-03-24T13:51:56;14.10;99.90
59128;DHT22;44912;52.754;5.994;2023-03-24T13:54:25;13.90;99.90
59128;DHT22;44912;52.754;5.994;2023-03-24T13:57:15;13.80;99.90
59128;DHT22;44912;52.754;5.994;2023-03-24T13:59:57;13.90;99.90
59128;DHT22;44912;52.754;5.994;2023-03-24T14:02:52;13.90;99.90
59128;DHT22;44912;52.754;5.994;2023-03-24T14:08:14;13.40;99.90
59128;DHT22;44912;52.754;5.994;2023-03-24T14:10:47;13.20;99.90
59128;DHT22;44912;52.754;5.994;2023-03-24T14:15:52;13.60;99.90
59128;DHT22;44912;52.754;5.994;2023-03-24T14:23:38;13.60;99.90
59128;DHT22;44912;52.754;5.994;2023-03-24T14:28:51;13.70;99.90
59128;DHT22;44912;52.754;5.994;2023-03-24T14:31:26;13.80;99.90
59128;DHT22;44912;52.754;5.994;2023-03-24T14:36:44;13.80;99.90
59128;DHT22;44912;52.754;5.994;2023-03-24T14:41:47;13.90;99.90
59128;DHT22;44912;52.754;5.994;2023-03-24T14:47:15;13.90;99.90
59128;DHT22;44912;52.754;5.994;2023-03-24T14:49:44;13.80;99.90
59128;DHT22;44912;52.754;5.994;2023-03-24T14:54:51;13.90;99.90
59128;DHT22;44912;52.754;5.994;2023-03-24T14:57:33;13.80;99.90
59128;DHT22;44912;52.754;5.994;2023-03-24T15:00:07;13.80;99.90
59128;DHT22;44912;52.754;5.994;2023-03-24T15:02:47;13.90;99.90
59128;DHT22;44912;52.754;5.994;2023-03-24T15:08:09;13.70;99.90
59128;DHT22;44912;52.754;5.994;2023-03-24T15:10:45;13.60;99.90
59128;DHT22;44912;52.754;5.994;2023-03-24T15:16:29;13.60;99.90
59128;DHT22;44912;52.754;5.994;2023-03-24T15:19:01;13.70;99.90
59128;DHT22;44912;52.754;5.994;2023-03-24T15:23:57;13.70;99.90
59128;DHT22;44912;52.754;5.994;2023-03-24T15:26:26;13.60;99.90
59128;DHT22;44912;52.754;5.994;2023-03-24T15:29:00;13.60;99.90
59128;DHT22;44912;52.754;5.994;2023-03-24T15:31:26;13.60;99.90
59128;DHT22;44912;52.754;5.994;2023-03-24T15:34:45;13.40;99.90
59128;DHT22;44912;52.754;5.994;2023-03-24T15:37:20;13.40;99.90
59128;DHT22;44912;52.754;5.994;2023-03-24T15:39:51;13.60;99.90
59128;DHT22;44912;52.754;5.994;2023-03-24T15:42:20;13.70;99.90
59128;DHT22;44912;52.754;5.994;2023-03-24T15:44:47;13.70;99.90
59128;DHT22;44912;52.754;5.994;2023-03-24T15:47:23;13.80;99.90
59128;DHT22;44912;52.754;5.994;2023-03-24T15:49:53;13.80;99.90
59128;DHT22;44912;52.754;5.994;2023-03-24T15:52:35;13.70;99.90
59128;DHT22;44912;52.754;5.994;2023-03-24T15:55:27;13.70;99.90
59128;DHT22;44912;52.754;5.994;2023-03-24T15:57:58;13.90;99.90
59128;DHT22;44912;52.754;5.994;2023-03-24T16:00:26;13.90;99.90
59128;DHT22;44912;52.754;5.994;2023-03-24T16:02:54;13.90;99.90
59128;DHT22;44912;52.754;5.994;2023-03-24T16:05:27;13.90;99.90
59128;DHT22;44912;52.754;5.994;2023-03-24T16:08:04;13.80;99.90
59128;DHT22;44912;52.754;5.994;2023-03-24T16:10:36;13.70;99.90
59128;DHT22;44912;52.754;5.994;2023-03-24T16:13:19;13.80;99.90
59128;DHT22;44912;52.754;5.994;2023-03-24T16:15:48;13.80;99.90
59128;DHT22;44912;52.754;5.994;2023-03-24T16:18:20;13.80;99.90
59128;DHT22;44912;52.754;5.994;2023-03-24T16:20:48;13.70;99.90
59128;DHT22;44912;52.754;5.994;2023-03-24T16:23:16;13.90;99.90
59128;DHT22;44912;52.754;5.994;2023-03-24T16:25:42;13.90;99.90
59128;DHT22;44912;52.754;5.994;2023-03-24T16:28:11;13.80;99.90
59128;DHT22;44912;52.754;5.994;2023-03-24T16:30:40;13.80;99.90
59128;DHT22;44912;52.754;5.994;2023-03-24T16:33:06;13.90;99.90
59128;DHT22;44912;52.754;5.994;2023-03-24T16:35:33;13.90;99.90
59128;DHT22;44912;52.754;5.994;2023-03-24T16:37:59;14.10;99.90
59128;DHT22;44912;52.754;5.994;2023-03-24T16:42:55;14.30;99.90
59128;DHT22;44912;52.754;5.994;2023-03-24T16:45:21;14.30;99.90
59128;DHT22;44912;52.754;5.994;2023-03-24T16:47:46;14.40;99.90
59128;DHT22;44912;52.754;5.994;2023-03-24T16:50:39;14.50;99.90
59128;DHT22;44912;52.754;5.994;2023-03-24T16:53:05;14.50;99.90
59128;DHT22;44912;52.754;5.994;2023-03-24T16:55:34;14.60;99.90
59128;DHT22;44912;52.754;5.994;2023-03-24T16:58:00;14.60;99.90
59128;DHT22;44912;52.754;5.994;2023-03-24T17:00:26;14.60;99.90
59128;DHT22;44912;52.754;5.994;2023-03-24T17:02:54;14.60;99.90
59128;DHT22;44912;52.754;5.994;2023-03-24T17:05:26;14.60;99.90
59128;DHT22;44912;52.754;5.994;2023-03-24T17:07:56;14.50;99.90
59128;DHT22;44912;52.754;5.994;2023-03-24T17:10:23;14.40;99.90
59128;DHT22;44912;52.754;5.994;2023-03-24T17:12:50;14.30;99.90
59128;DHT22;44912;52.754;5.994;2023-03-24T17:15:24;14.20;99.90
59128;DHT22;44912;52.754;5.994;2023-03-24T17:17:51;14.10;99.90
59128;DHT22;44912;52.754;5.994;2023-03-24T17:20:18;14.00;99.90
59128;DHT22;44912;52.754;5.994;2023-03-24T17:22:45;13.90;99.90
59128;DHT22;44912;52.754;5.994;2023-03-24T17:25:12;13.70;99.90
59128;DHT22;44912;52.754;5.994;2023-03-24T17:27:38;13.70;99.90
59128;DHT22;44912;52.754;5.994;2023-03-24T17:30:05;13.50;99.90
59128;DHT22;44912;52.754;5.994;2023-03-24T17:32:32;13.30;99.90
59128;DHT22;44912;52.754;5.994;2023-03-24T17:34:58;13.10;99.90
59128;DHT22;44912;52.754;5.994;2023-03-24T17:37:27;12.80;99.90
59128;DHT22;44912;52.754;5.994;2023-03-24T17:39:53;12.60;99.90
59128;DHT22;44912;52.754;5.994;2023-03-24T17:42:20;12.50;99.90